Huvudsida
METAR-TAF:

METAR-TAF

Flygplatser :

Kuala Terengganu, Malaysia

latitud: 05-22-53N, longitud: 103-06-17E, höjd: 6 m

Aktuellt väderrapport

Denna rapport gjordes för 44 minuter sedan, klockan 17:00 UTC
Vind 3 kt varierande vindriktning
Temperatur 27°C
Fuktighet 89%
Tryck 1008 hPa
Sikt 10 km eller mer
Få moln på en höjd av 2200 ft
Brutna moln på en höjd av 30000 ft

METAR: WMKN 191700Z VRB03KT 9999 FEW022 BKN300 27/25 Q1008

Tid: 01:44 (17:44 UTC)

Väderprognos

Denna rapport gjordes för 44 minuter sedan, klockan 17:00 UTC
Prognos gäller från 19 kl. 18 UTC till 20 kl. 18 UTC
Vind 5 kt från syd/sydväst
Sikt 10 km eller mer
Få moln på en höjd av 2000 ft
Blir
från 20 kl. 00 UTC till 20 kl. 02 UTC
Vind 5 kt från syd
Sikt 10 km eller mer
Spridda moln på en höjd av 1800 ft
Blir
från 20 kl. 10 UTC till 20 kl. 12 UTC
Vind 2 kt varierande vindriktning

TAF: WMKN 191700Z 1918/2018 21005KT 9999 FEW020 BECMG 2000/2002 19005KT 9999 SCT018 BECMG 2010/2012 VRB02KT

Aktuella väderrapporter och prognoser från 4000 flygplatser (METAR- och TAF-rapporter).

De tillgängliga stationerna syns som gula och röda prickar på kartan.

För musen över prickarna för att se namnen på stationerna.

Klicka sedan för att få väderrapporter och prognoser.

För att ändra kartan: Klicka på de gröna knapparna med ett svart kors på för att zooma in; den gröna knappen med ett streck på för att zooma ut; eller på de gröna pilarna för angränsande kartor.


METAR-TAF: